createdAt,value
2022-08-23T00:02:56.845Z,98820.03
2022-08-23T00:08:02.198Z,98808.97
2022-08-23T00:13:10.551Z,98810.94
2022-08-23T00:18:16.747Z,98798.91
2022-08-23T00:23:21.963Z,98806.91
2022-08-23T00:28:29.825Z,98807.06
2022-08-23T00:33:35.347Z,98796.28
2022-08-23T00:38:43.555Z,98803.97
2022-08-23T00:44:03.993Z,98803.88
2022-08-23T00:49:14.587Z,98797.25
2022-08-23T00:54:23.307Z,98793.72
2022-08-23T00:59:32.362Z,98791.06
2022-08-23T01:04:44.673Z,98795.97
2022-08-23T01:09:52.953Z,98792.25
2022-08-23T01:15:06.796Z,98796.19
2022-08-23T01:20:18.844Z,98793.66
2022-08-23T01:25:32.135Z,98797.78
2022-08-23T01:30:39.145Z,98789.16
2022-08-23T01:35:47.674Z,98791.50
2022-08-23T01:40:56.096Z,98779.94
2022-08-23T01:46:01.154Z,98785.38
2022-08-23T01:51:06.828Z,98784.19
2022-08-23T01:56:27.616Z,98785.94
2022-08-23T02:01:47.511Z,98789.88
2022-08-23T02:06:54.239Z,98795.81
2022-08-23T02:12:17.943Z,98794.28
2022-08-23T02:17:25.473Z,98792.94
2022-08-23T02:22:30.434Z,98798.50
2022-08-23T02:27:44.193Z,98792.38
2022-08-23T02:32:51.252Z,98799.19
2022-08-23T02:37:59.553Z,98793.13
2022-08-23T02:43:08.728Z,98802.34
2022-08-23T02:48:14.596Z,98804.09
2022-08-23T02:53:29.481Z,98794.72
2022-08-23T02:58:40.188Z,98796.63
2022-08-23T03:03:55.328Z,98792.72
2022-08-23T03:09:01.022Z,98805.03
2022-08-23T03:14:10.900Z,98806.81
2022-08-23T03:19:15.946Z,98805.03
2022-08-23T03:24:21.136Z,98814.88
2022-08-23T03:29:29.526Z,98814.63
2022-08-23T03:34:40.196Z,98809.78
2022-08-23T03:39:48.770Z,98818.47
2022-08-23T03:45:02.400Z,98825.31
2022-08-23T03:50:11.565Z,98822.38
2022-08-23T03:55:21.973Z,98829.91
2022-08-23T04:00:35.799Z,98837.53
2022-08-23T04:05:40.837Z,98836.38
2022-08-23T04:10:53.067Z,98834.75
2022-08-23T04:16:05.201Z,98838.09
2022-08-23T04:21:14.692Z,98838.41
2022-08-23T04:26:20.003Z,98836.59
2022-08-23T04:31:34.474Z,98827.88
2022-08-23T04:36:55.280Z,98832.16
2022-08-23T04:42:15.029Z,98832.94
2022-08-23T04:47:24.013Z,98836.97
2022-08-23T04:52:32.929Z,98833.91
2022-08-23T04:57:38.554Z,98843.75
2022-08-23T05:02:48.404Z,98855.41
2022-08-23T05:07:53.351Z,98861.25
2022-08-23T05:13:00.073Z,98861.22
2022-08-23T05:18:07.988Z,98859.09
2022-08-23T05:23:16.001Z,98866.16
2022-08-23T05:28:33.542Z,98857.31
2022-08-23T05:33:47.815Z,98865.00
2022-08-23T05:38:59.315Z,98871.75
2022-08-23T05:44:05.034Z,98875.97
2022-08-23T05:49:20.931Z,98882.38
2022-08-23T05:54:27.093Z,98873.28
2022-08-23T05:59:51.319Z,98878.94
2022-08-23T06:04:59.507Z,98886.03
2022-08-23T06:10:08.087Z,98885.69
2022-08-23T06:15:24.525Z,98880.88
2022-08-23T06:20:33.755Z,98887.94
2022-08-23T06:25:42.267Z,98877.47
2022-08-23T06:30:57.325Z,98885.16
2022-08-23T06:36:11.147Z,98880.81
2022-08-23T06:41:33.929Z,98894.06
2022-08-23T06:47:08.389Z,98904.47
2022-08-23T06:52:16.253Z,98907.91
2022-08-23T06:57:53.443Z,98905.31
2022-08-23T07:03:04.895Z,98913.75
2022-08-23T07:08:33.238Z,98901.19
2022-08-23T07:13:40.718Z,98911.41
2022-08-23T07:18:46.079Z,98914.53
2022-08-23T07:23:57.663Z,98916.38
2022-08-23T07:29:02.869Z,98913.19
2022-08-23T07:34:09.907Z,98918.81
2022-08-23T07:39:22.819Z,98919.88
2022-08-23T07:44:34.344Z,98925.03
2022-08-23T07:49:39.700Z,98927.72
2022-08-23T07:54:49.879Z,98928.50
2022-08-23T08:00:15.047Z,98932.22
2022-08-23T08:05:30.086Z,98940.94
2022-08-23T08:10:41.272Z,98943.47
2022-08-23T08:15:48.362Z,98953.56
2022-08-23T08:20:55.862Z,98946.72
2022-08-23T08:26:23.320Z,98943.63
2022-08-23T08:31:36.492Z,98950.34
2022-08-23T08:36:46.775Z,98949.22
2022-08-23T08:42:23.478Z,98953.38
2022-08-23T08:47:38.146Z,98947.31
2022-08-23T08:52:50.710Z,98943.72
2022-08-23T08:58:20.389Z,98942.84
2022-08-23T09:03:27.044Z,98947.63
2022-08-23T09:08:45.682Z,98954.41
2022-08-23T09:14:19.015Z,98954.66
2022-08-23T09:19:26.692Z,98952.81
2022-08-23T09:24:35.384Z,98948.66
2022-08-23T09:30:01.993Z,98954.16
2022-08-23T09:35:11.765Z,98959.81
2022-08-23T09:40:28.446Z,98956.75
2022-08-23T09:45:42.179Z,98956.88
2022-08-23T09:50:54.790Z,98955.28
2022-08-23T09:56:12.905Z,98967.53
2022-08-23T10:01:24.580Z,98972.91
2022-08-23T10:06:42.107Z,98973.00
2022-08-23T10:11:52.053Z,98968.41
2022-08-23T10:17:11.528Z,98967.69
2022-08-23T10:22:22.797Z,98966.41
2022-08-23T10:28:14.762Z,98977.59
2022-08-23T10:33:36.009Z,98970.94
2022-08-23T10:38:49.765Z,98981.81
2022-08-23T10:44:06.320Z,98973.59
2022-08-23T10:49:18.029Z,98983.16
2022-08-23T10:54:35.528Z,98983.63
2022-08-23T10:59:48.377Z,98987.25
2022-08-23T11:05:06.613Z,98985.53
2022-08-23T11:10:19.067Z,98989.97
2022-08-23T11:15:44.704Z,98990.03
2022-08-23T11:21:05.016Z,98985.25
2022-08-23T11:27:07.712Z,98985.53
2022-08-23T11:32:35.310Z,98984.72
2022-08-23T11:38:00.442Z,98985.34
2022-08-23T11:43:29.204Z,98998.06
2022-08-23T11:48:43.399Z,99000.91
2022-08-23T11:54:30.578Z,98995.13
2022-08-23T12:00:05.279Z,98995.94
2022-08-23T12:05:35.230Z,99006.34
2022-08-23T12:11:07.441Z,99006.91
2022-08-23T12:16:32.405Z,99000.34
2022-08-23T12:21:47.858Z,99000.88
2022-08-23T12:27:02.587Z,99004.97
2022-08-23T12:32:18.310Z,99002.78
2022-08-23T12:37:31.445Z,98991.69
2022-08-23T12:42:39.423Z,98999.97
2022-08-23T12:48:01.011Z,98995.47
2022-08-23T12:53:10.382Z,99003.84
2022-08-23T12:58:17.353Z,98990.16
2022-08-23T13:03:30.120Z,98999.69
2022-08-23T13:08:41.505Z,99003.00
2022-08-23T13:13:47.700Z,98995.00
2022-08-23T13:18:56.298Z,98988.31
2022-08-23T13:24:03.404Z,98997.69
2022-08-23T13:29:13.374Z,99000.41
2022-08-23T13:34:40.520Z,98994.09
2022-08-23T13:39:57.283Z,98998.91
2022-08-23T13:45:11.875Z,98998.72
2022-08-23T13:50:25.821Z,98989.72
2022-08-23T13:55:32.444Z,98996.19
2022-08-23T14:00:37.482Z,98994.16
2022-08-23T14:05:44.989Z,98985.63
2022-08-23T14:10:50.603Z,98995.25
2022-08-23T14:15:58.858Z,99001.00
2022-08-23T14:21:23.782Z,99000.16
2022-08-23T14:26:29.810Z,98996.88
2022-08-23T14:31:35.137Z,98994.25
2022-08-23T14:38:00.275Z,98995.38
2022-08-23T14:42:09.833Z,98995.16
2022-08-23T14:47:16.610Z,99002.56
2022-08-23T14:52:24.828Z,98996.06
2022-08-23T14:57:29.811Z,98996.78
2022-08-23T15:02:36.571Z,98985.44
2022-08-23T15:07:44.367Z,98988.13
2022-08-23T15:12:58.284Z,98986.34
2022-08-23T15:18:09.584Z,98991.22
2022-08-23T15:23:17.572Z,98991.75
2022-08-23T15:28:25.069Z,98987.44
2022-08-23T15:33:30.827Z,98987.09
2022-08-23T15:38:39.715Z,98993.38
2022-08-23T15:43:45.146Z,98985.81
2022-08-23T15:48:53.706Z,98991.69
2022-08-23T15:54:01.605Z,98990.03
2022-08-23T15:59:07.403Z,98990.88
2022-08-23T16:04:14.969Z,98986.59
2022-08-23T16:09:25.861Z,98979.03
2022-08-23T16:14:32.514Z,98970.00
2022-08-23T16:19:37.604Z,98968.38
2022-08-23T16:24:45.155Z,98963.72
2022-08-23T16:29:51.142Z,98965.09
2022-08-23T16:34:56.355Z,98959.75
2022-08-23T16:40:03.945Z,98970.16
2022-08-23T16:45:15.631Z,98967.41
2022-08-23T16:50:20.644Z,98972.78
2022-08-23T16:55:28.439Z,98960.53
2022-08-23T17:00:33.699Z,98969.25
2022-08-23T17:05:39.016Z,98976.00
2022-08-23T17:10:48.803Z,98980.78
2022-08-23T17:15:54.147Z,98990.41
2022-08-23T17:21:01.058Z,98988.69
2022-08-23T17:26:09.462Z,98993.44
2022-08-23T17:31:14.846Z,98989.34
2022-08-23T17:36:33.915Z,98998.44
2022-08-23T17:41:45.339Z,99005.44
2022-08-23T17:46:51.537Z,99005.31
2022-08-23T17:51:57.922Z,99014.50
2022-08-23T17:57:08.593Z,99017.03
2022-08-23T18:02:13.617Z,99026.91
2022-08-23T18:07:18.707Z,99027.50
2022-08-23T18:12:26.311Z,99028.56
2022-08-23T18:17:31.323Z,99045.22
2022-08-23T18:22:37.357Z,99042.00
2022-08-23T18:27:58.468Z,99058.44
2022-08-23T18:33:04.637Z,99055.88
2022-08-23T18:38:13.109Z,99060.16
2022-08-23T18:43:23.433Z,99068.53
2022-08-23T18:48:30.567Z,99069.31
2022-08-23T18:53:35.508Z,99078.13
2022-08-23T18:58:43.316Z,99086.44
2022-08-23T19:03:48.303Z,99087.91
2022-08-23T19:08:56.132Z,99090.78
2022-08-23T19:14:04.220Z,99088.16
2022-08-23T19:19:12.253Z,99100.75
2022-08-23T19:24:18.590Z,99103.09
2022-08-23T19:29:26.292Z,99113.19
2022-08-23T19:34:31.542Z,99115.47
2022-08-23T19:39:36.514Z,99125.59
2022-08-23T19:44:44.069Z,99124.84
2022-08-23T19:49:51.309Z,99124.84
2022-08-23T19:55:05.126Z,99124.56
2022-08-23T20:00:19.662Z,99127.34
2022-08-23T20:05:24.876Z,99138.94
2022-08-23T20:10:30.740Z,99137.94
2022-08-23T20:15:38.397Z,99133.97
2022-08-23T20:20:44.524Z,99132.22
2022-08-23T20:25:49.572Z,99125.69
2022-08-23T20:30:57.482Z,99121.72
2022-08-23T20:36:05.587Z,99125.19
2022-08-23T20:41:10.802Z,99126.19
2022-08-23T20:46:25.279Z,99129.94
2022-08-23T20:51:37.050Z,99137.00
2022-08-23T20:56:42.219Z,99140.31
2022-08-23T21:01:50.493Z,99145.19
2022-08-23T21:06:55.870Z,99141.19
2022-08-23T21:12:03.539Z,99144.50
2022-08-23T21:17:11.036Z,99145.97
2022-08-23T21:22:15.997Z,99145.34
2022-08-23T21:27:21.029Z,99146.44
2022-08-23T21:32:28.813Z,99132.94
2022-08-23T21:37:35.424Z,99134.78
2022-08-23T21:42:41.075Z,99136.41
2022-08-23T21:47:48.994Z,99134.66
2022-08-23T21:52:56.554Z,99136.16
2022-08-23T21:58:01.920Z,99128.66
2022-08-23T22:03:09.989Z,99125.34
2022-08-23T22:08:17.027Z,99126.84
2022-08-23T22:13:22.420Z,99122.41
2022-08-23T22:18:31.129Z,99124.84
2022-08-23T22:23:37.010Z,99122.56
2022-08-23T22:28:44.887Z,99117.72
2022-08-23T22:33:53.677Z,99109.16
2022-08-23T22:38:59.234Z,99107.38
2022-08-23T22:44:05.550Z,99111.69
2022-08-23T22:49:13.246Z,99109.63
2022-08-23T22:54:19.136Z,99104.31
2022-08-23T22:59:32.382Z,99105.34
2022-08-23T23:04:40.770Z,99106.81
2022-08-23T23:09:45.704Z,99105.53
2022-08-23T23:14:50.599Z,99109.94
2022-08-23T23:20:10.544Z,99112.47
2022-08-23T23:25:15.486Z,99107.53
2022-08-23T23:30:20.470Z,99109.03
2022-08-23T23:35:30.996Z,99107.50
2022-08-23T23:40:37.112Z,99100.03
2022-08-23T23:45:42.398Z,99095.66
2022-08-23T23:50:50.030Z,99098.31
2022-08-23T23:56:02.409Z,99094.03
